Terminal Aerodrome Forecast
Issued by NWS Charleston, WV

Current Version | Previous Version | Text Only | Print | Product List | Glossary Off
Versions: 1 2 3 4 5 6 7 8 9 10 11 12 13 14 15 16 17 18 19 20 21 22 23 24

000
FTUS41 KRLX 271700
TAFEKN
TAF
KEKN 271737Z 2718/2818 VRB04KT P6SM SCT250
     FM280500 00000KT 6SM BR SCT250
     FM280800 00000KT 1/2SM FG VV001
     FM281100 VRB03KT 3SM BR SCT250
     FM281200 22004KT 4SM BR SCT250
     FM281400 23007KT P6SM SCT250
     FM281700 23011KT P6SM FEW040 SCT150=

USA.gov is the U.S. government's official web portal to all federal, state and local government web resources and services.